createdAt,value
2022-11-05T00:00:08.929Z,7.43
2022-11-05T00:01:12.245Z,7.13
2022-11-05T00:02:06.566Z,7.32
2022-11-05T00:03:02.295Z,7.80
2022-11-05T00:03:54.912Z,7.10
2022-11-05T00:04:46.284Z,6.68
2022-11-05T00:05:37.780Z,7.35
2022-11-05T00:06:39.135Z,6.53
2022-11-05T00:07:49.340Z,5.68
2022-11-05T00:08:40.566Z,7.15
2022-11-05T00:09:30.579Z,7.35
2022-11-05T00:10:18.444Z,7.07
2022-11-05T00:10:53.390Z,7.30
2022-11-05T00:11:46.010Z,7.15
2022-11-05T00:12:54.073Z,6.90
2022-11-05T00:13:48.225Z,6.75
2022-11-05T00:14:43.948Z,6.18
2022-11-05T00:15:38.259Z,6.22
2022-11-05T00:16:32.468Z,6.00
2022-11-05T00:17:05.989Z,6.50
2022-11-05T00:17:43.955Z,6.40
2022-11-05T00:18:20.870Z,7.07
2022-11-05T00:19:10.591Z,6.38
2022-11-05T00:19:46.759Z,6.70
2022-11-05T00:20:24.546Z,6.50
2022-11-05T00:20:57.990Z,6.72
2022-11-05T00:21:53.059Z,5.60
2022-11-05T00:22:44.148Z,6.05
2022-11-05T00:23:37.138Z,6.10
2022-11-05T00:24:28.229Z,5.68
2022-11-05T00:25:18.891Z,6.22
2022-11-05T00:26:07.871Z,5.13
2022-11-05T00:26:45.759Z,6.05
2022-11-05T00:28:23.136Z,5.78
2022-11-05T00:29:03.137Z,6.20
2022-11-05T00:29:37.492Z,6.05
2022-11-05T00:30:11.101Z,6.80
2022-11-05T00:30:47.173Z,5.45
2022-11-05T00:31:20.382Z,5.75
2022-11-05T00:31:52.390Z,6.05
2022-11-05T00:32:25.088Z,5.22
2022-11-05T00:33:05.122Z,5.80
2022-11-05T00:33:41.313Z,5.85
2022-11-05T00:34:14.548Z,5.50
2022-11-05T00:34:47.864Z,5.97
2022-11-05T00:35:24.094Z,5.97
2022-11-05T00:35:56.328Z,5.80
2022-11-05T00:36:28.995Z,5.10
2022-11-05T00:37:01.026Z,4.97
2022-11-05T00:37:33.054Z,4.90
2022-11-05T00:38:09.490Z,5.22
2022-11-05T00:38:45.955Z,4.53
2022-11-05T00:39:18.046Z,5.03
2022-11-05T00:39:49.989Z,4.75
2022-11-05T00:40:25.053Z,4.93
2022-11-05T00:40:59.361Z,4.38
2022-11-05T00:41:38.064Z,4.45
2022-11-05T00:42:33.129Z,5.10
2022-11-05T00:43:24.059Z,4.47
2022-11-05T00:45:07.305Z,4.68
2022-11-05T00:45:46.271Z,4.10
2022-11-05T00:46:20.616Z,4.78
2022-11-05T00:47:13.493Z,4.35
2022-11-05T00:48:04.736Z,4.25
2022-11-05T00:49:33.015Z,4.65
2022-11-05T00:50:05.483Z,3.97
2022-11-05T00:50:37.231Z,4.63
2022-11-05T00:51:12.446Z,4.85
2022-11-05T00:51:51.997Z,4.85
2022-11-05T00:52:42.483Z,4.53
2022-11-05T00:53:14.779Z,4.35
2022-11-05T00:53:46.656Z,4.18
2022-11-05T00:54:18.398Z,4.90
2022-11-05T00:54:50.248Z,3.65
2022-11-05T00:55:40.559Z,4.50
2022-11-05T00:56:12.462Z,4.22
2022-11-05T00:56:44.215Z,3.90
2022-11-05T00:57:15.943Z,3.83
2022-11-05T00:57:47.897Z,4.55
2022-11-05T00:58:21.565Z,4.05
2022-11-05T00:58:53.358Z,3.83
2022-11-05T00:59:25.096Z,4.40
2022-11-05T00:59:56.801Z,4.18
2022-11-05T01:00:30.839Z,4.65
2022-11-05T01:01:03.565Z,5.18
2022-11-05T01:01:35.601Z,4.57
2022-11-05T01:02:07.825Z,4.38
2022-11-05T01:02:39.911Z,4.38
2022-11-05T01:03:14.841Z,4.13
2022-11-05T01:03:51.421Z,4.60
2022-11-05T01:04:23.968Z,3.90
2022-11-05T01:04:55.903Z,3.88
2022-11-05T01:05:29.147Z,3.95
2022-11-05T01:06:12.744Z,3.95
2022-11-05T01:06:44.770Z,3.60
2022-11-05T01:07:16.709Z,3.60
2022-11-05T01:07:48.640Z,4.05
2022-11-05T01:08:23.270Z,3.75
2022-11-05T01:08:55.867Z,4.30
2022-11-05T01:09:27.925Z,3.55
2022-11-05T01:09:59.902Z,4.07
2022-11-05T01:10:32.289Z,3.47
2022-11-05T01:11:34.456Z,3.78
2022-11-05T01:12:06.526Z,4.18
2022-11-05T01:12:38.328Z,3.50
2022-11-05T01:13:13.204Z,3.50
2022-11-05T01:13:45.617Z,3.90
2022-11-05T01:14:17.947Z,3.83
2022-11-05T01:14:49.923Z,3.42
2022-11-05T01:15:22.411Z,3.88
2022-11-05T01:15:54.863Z,3.63
2022-11-05T01:16:26.911Z,3.78
2022-11-05T01:16:58.794Z,4.00
2022-11-05T01:17:30.922Z,3.95
2022-11-05T01:18:02.901Z,4.00
2022-11-05T01:18:37.629Z,3.83
2022-11-05T01:19:10.604Z,4.03
2022-11-05T01:19:42.681Z,4.38
2022-11-05T01:20:14.704Z,3.83
2022-11-05T01:20:47.109Z,4.00
2022-11-05T01:21:19.136Z,3.75
2022-11-05T01:21:51.124Z,4.30
2022-11-05T01:22:23.023Z,4.38
2022-11-05T01:22:55.096Z,4.32
2022-11-05T01:23:28.728Z,4.00
2022-11-05T01:24:01.480Z,4.20
2022-11-05T01:24:33.427Z,3.70
2022-11-05T01:25:07.468Z,4.25
2022-11-05T01:25:39.512Z,5.22
2022-11-05T01:26:11.579Z,4.05
2022-11-05T01:26:43.551Z,4.30
2022-11-05T01:27:15.493Z,4.28
2022-11-05T01:27:47.553Z,4.20
2022-11-05T01:28:19.647Z,3.95
2022-11-05T01:28:53.276Z,4.20
2022-11-05T01:29:25.419Z,4.68
2022-11-05T01:29:57.273Z,4.35
2022-11-05T01:30:29.307Z,4.07
2022-11-05T01:31:01.405Z,4.18
2022-11-05T01:31:33.347Z,4.45
2022-11-05T01:32:05.567Z,4.72
2022-11-05T01:32:38.140Z,4.57
2022-11-05T01:33:10.528Z,4.63
2022-11-05T01:33:42.793Z,4.60
2022-11-05T01:34:14.719Z,4.70
2022-11-05T01:34:46.665Z,4.40
2022-11-05T01:35:19.297Z,4.43
2022-11-05T01:35:51.839Z,4.35
2022-11-05T01:36:23.919Z,4.80
2022-11-05T01:36:55.885Z,4.18
2022-11-05T01:37:27.797Z,4.45
2022-11-05T01:37:59.957Z,4.45
2022-11-05T01:38:32.062Z,4.57
2022-11-05T01:39:04.341Z,5.15
2022-11-05T01:39:36.498Z,4.47
2022-11-05T01:40:12.080Z,4.93
2022-11-05T01:40:44.502Z,4.55
2022-11-05T01:41:16.403Z,4.30
2022-11-05T01:41:48.371Z,4.43
2022-11-05T01:42:24.040Z,4.28
2022-11-05T01:42:56.161Z,4.18
2022-11-05T01:43:46.369Z,3.80
2022-11-05T01:44:52.337Z,4.43
2022-11-05T01:45:28.179Z,4.80
2022-11-05T01:46:00.673Z,4.40
2022-11-05T01:46:32.560Z,4.07
2022-11-05T01:47:04.370Z,3.85
2022-11-05T01:47:51.447Z,4.75
2022-11-05T01:48:33.012Z,4.57
2022-11-05T01:49:17.462Z,4.75
2022-11-05T01:49:49.330Z,4.65
2022-11-05T01:50:40.064Z,4.35
2022-11-05T01:51:18.760Z,4.13
2022-11-05T01:51:51.429Z,4.07
2022-11-05T01:52:24.739Z,4.45
2022-11-05T01:53:07.757Z,4.38
2022-11-05T01:53:44.584Z,4.68
2022-11-05T01:54:21.049Z,4.97
2022-11-05T01:54:53.131Z,5.13
2022-11-05T01:55:28.758Z,4.63
2022-11-05T01:56:16.778Z,5.03
2022-11-05T01:57:03.996Z,4.20
2022-11-05T01:57:35.873Z,4.25
2022-11-05T01:58:12.193Z,4.82
2022-11-05T01:59:10.317Z,4.47
2022-11-05T01:59:48.812Z,4.38
2022-11-05T02:00:20.681Z,5.03
2022-11-05T02:00:53.115Z,4.38
2022-11-05T02:01:25.115Z,4.60
2022-11-05T02:01:57.550Z,5.18
2022-11-05T02:02:31.228Z,4.63
2022-11-05T02:03:03.250Z,4.28
2022-11-05T02:03:35.761Z,4.78
2022-11-05T02:04:12.213Z,4.63
2022-11-05T02:04:53.977Z,4.90
2022-11-05T02:05:25.996Z,4.18
2022-11-05T02:06:00.563Z,4.70
2022-11-05T02:06:36.883Z,4.63
2022-11-05T02:07:10.310Z,5.07
2022-11-05T02:07:46.484Z,4.70
2022-11-05T02:08:50.679Z,4.78
2022-11-05T02:09:29.936Z,4.63
2022-11-05T02:10:11.104Z,4.70
2022-11-05T02:10:44.897Z,4.88
2022-11-05T02:11:18.369Z,4.65
2022-11-05T02:11:51.793Z,4.43
2022-11-05T02:12:24.190Z,4.38
2022-11-05T02:12:55.918Z,4.47
2022-11-05T02:13:27.684Z,4.80
2022-11-05T02:14:00.145Z,4.75
2022-11-05T02:14:32.020Z,5.03
2022-11-05T02:15:04.246Z,4.68
2022-11-05T02:15:51.023Z,4.85
2022-11-05T02:16:29.863Z,5.07
2022-11-05T02:17:25.403Z,4.75
2022-11-05T02:18:34.063Z,5.07
2022-11-05T02:19:34.721Z,4.50
2022-11-05T02:20:19.062Z,4.32
2022-11-05T02:21:01.421Z,4.85
2022-11-05T02:21:54.909Z,4.32
2022-11-05T02:22:54.930Z,4.03
2022-11-05T02:24:25.124Z,4.70
2022-11-05T02:25:35.496Z,4.50
2022-11-05T02:26:28.486Z,4.85
2022-11-05T02:27:17.175Z,4.78
2022-11-05T02:28:00.267Z,4.82
2022-11-05T02:29:06.485Z,5.07
2022-11-05T02:30:05.595Z,4.40
2022-11-05T02:30:56.399Z,5.30
2022-11-05T02:31:47.458Z,4.30
2022-11-05T02:32:40.209Z,4.82
2022-11-05T02:33:17.997Z,3.67
2022-11-05T02:33:57.101Z,4.45
2022-11-05T02:34:50.252Z,4.38
2022-11-05T02:35:34.156Z,4.47
2022-11-05T02:36:27.863Z,4.15
2022-11-05T02:37:20.382Z,4.70
2022-11-05T02:37:59.501Z,4.45
2022-11-05T02:38:50.599Z,3.92
2022-11-05T02:40:21.723Z,4.25
2022-11-05T02:41:45.388Z,4.68
2022-11-05T02:42:38.557Z,4.47
2022-11-05T02:43:36.310Z,4.50
2022-11-05T02:44:35.483Z,4.22
2022-11-05T02:45:07.219Z,3.88
2022-11-05T02:46:01.547Z,4.13
2022-11-05T02:46:37.013Z,3.90
2022-11-05T02:47:23.910Z,3.78
2022-11-05T02:48:13.602Z,3.72
2022-11-05T02:49:23.102Z,3.72
2022-11-05T02:50:13.081Z,3.92
2022-11-05T02:51:23.869Z,4.28
2022-11-05T02:51:58.640Z,3.72
2022-11-05T02:52:37.908Z,3.88
2022-11-05T02:53:12.772Z,3.85
2022-11-05T02:54:02.209Z,3.80
2022-11-05T02:54:51.632Z,4.05
2022-11-05T02:55:33.705Z,3.78
2022-11-05T02:56:25.684Z,3.97
2022-11-05T02:57:00.266Z,3.85
2022-11-05T02:57:36.169Z,3.80
2022-11-05T02:58:08.568Z,3.90
2022-11-05T02:58:40.362Z,3.92
2022-11-05T02:59:12.189Z,3.50
2022-11-05T02:59:43.994Z,3.80
2022-11-05T03:00:55.331Z,3.55
2022-11-05T03:01:27.173Z,3.55
2022-11-05T03:02:01.071Z,3.80
2022-11-05T03:02:33.308Z,3.85
2022-11-05T03:03:09.707Z,3.95
2022-11-05T03:03:48.817Z,3.90
2022-11-05T03:04:23.617Z,3.97
2022-11-05T03:04:55.664Z,3.53
2022-11-05T03:05:53.503Z,3.78
2022-11-05T03:06:34.370Z,3.50
2022-11-05T03:07:30.030Z,4.05
2022-11-05T03:08:11.278Z,3.80
2022-11-05T03:08:55.056Z,3.85
2022-11-05T03:09:51.332Z,3.63
2022-11-05T03:10:30.674Z,3.85
2022-11-05T03:11:13.870Z,3.90
2022-11-05T03:11:54.793Z,4.05
2022-11-05T03:12:36.987Z,3.38
2022-11-05T03:13:25.936Z,3.78
2022-11-05T03:14:25.235Z,3.75
2022-11-05T03:15:15.840Z,4.45
2022-11-05T03:15:52.323Z,4.05
2022-11-05T03:16:39.301Z,3.45
2022-11-05T03:17:21.388Z,4.18
2022-11-05T03:17:55.961Z,4.45
2022-11-05T03:18:58.895Z,3.90
2022-11-05T03:19:44.482Z,3.95
2022-11-05T03:20:42.172Z,4.03
2022-11-05T03:21:23.636Z,3.58
2022-11-05T03:22:02.807Z,4.00
2022-11-05T03:22:41.426Z,3.58
2022-11-05T03:23:37.749Z,4.55
2022-11-05T03:24:15.823Z,4.28
2022-11-05T03:24:52.440Z,4.05
2022-11-05T03:25:28.183Z,3.72
2022-11-05T03:26:07.700Z,3.70
2022-11-05T03:26:49.168Z,4.28
2022-11-05T03:27:26.815Z,4.32
2022-11-05T03:28:02.964Z,4.13
2022-11-05T03:28:37.906Z,4.57
2022-11-05T03:29:15.786Z,4.22
2022-11-05T03:29:52.071Z,3.83
2022-11-05T03:30:25.470Z,3.90
2022-11-05T03:30:59.788Z,4.35
2022-11-05T03:31:33.940Z,4.07
2022-11-05T03:32:09.318Z,4.22
2022-11-05T03:32:46.338Z,3.97
2022-11-05T03:33:23.846Z,4.05
2022-11-05T03:33:57.939Z,4.32
2022-11-05T03:34:37.370Z,3.95
2022-11-05T03:35:16.141Z,3.95
2022-11-05T03:35:53.971Z,3.70
2022-11-05T03:36:33.791Z,4.15
2022-11-05T03:37:08.105Z,4.28
2022-11-05T03:37:43.265Z,4.10
2022-11-05T03:38:24.038Z,3.83
2022-11-05T03:39:37.698Z,3.92
2022-11-05T03:40:12.165Z,4.18
2022-11-05T03:40:47.556Z,3.88
2022-11-05T03:41:22.180Z,3.50
2022-11-05T03:41:55.480Z,4.20
2022-11-05T03:42:32.677Z,4.25
2022-11-05T03:43:08.321Z,3.75
2022-11-05T03:43:45.140Z,4.03
2022-11-05T03:44:23.659Z,4.47
2022-11-05T03:45:00.096Z,3.75
2022-11-05T03:45:37.624Z,4.30
2022-11-05T03:46:16.015Z,3.55
2022-11-05T03:46:49.612Z,4.28
2022-11-05T03:47:26.293Z,3.70
2022-11-05T03:48:01.757Z,4.47
2022-11-05T03:48:40.483Z,4.15
2022-11-05T03:49:19.050Z,4.20
2022-11-05T03:50:22.520Z,4.45
2022-11-05T03:51:04.294Z,4.25
2022-11-05T03:51:39.497Z,3.85
2022-11-05T03:52:18.030Z,3.53
2022-11-05T03:52:56.210Z,4.32
2022-11-05T03:53:35.849Z,3.53
2022-11-05T03:54:08.104Z,3.75
2022-11-05T03:54:40.663Z,3.72
2022-11-05T03:55:13.071Z,4.50
2022-11-05T03:56:01.279Z,4.10
2022-11-05T03:56:44.822Z,4.40
2022-11-05T03:57:25.051Z,4.00
2022-11-05T03:57:59.377Z,4.25
2022-11-05T03:58:32.213Z,3.60
2022-11-05T03:59:06.822Z,3.83
2022-11-05T03:59:42.396Z,3.78
2022-11-05T04:00:14.493Z,4.00
2022-11-05T04:00:47.482Z,4.50
2022-11-05T04:01:19.506Z,4.03
2022-11-05T04:01:51.633Z,4.07
2022-11-05T04:02:28.580Z,4.32
2022-11-05T04:03:00.575Z,4.13
2022-11-05T04:03:36.526Z,3.92
2022-11-05T04:04:09.834Z,3.58
2022-11-05T04:04:42.072Z,4.30
2022-11-05T04:05:13.885Z,3.60
2022-11-05T04:06:05.933Z,3.88
2022-11-05T04:06:56.112Z,4.00
2022-11-05T04:07:47.040Z,3.95
2022-11-05T04:09:28.961Z,3.90
2022-11-05T04:10:19.484Z,3.80
2022-11-05T04:11:10.137Z,4.75
2022-11-05T04:12:00.173Z,3.75
2022-11-05T04:12:57.961Z,3.40
2022-11-05T04:13:29.779Z,3.72
2022-11-05T04:14:01.556Z,4.35
2022-11-05T04:14:33.313Z,3.72
2022-11-05T04:15:05.464Z,3.90
2022-11-05T04:15:56.147Z,3.83
2022-11-05T04:16:46.861Z,4.03
2022-11-05T04:17:18.704Z,4.07
2022-11-05T04:17:50.668Z,4.22
2022-11-05T04:18:22.766Z,4.22
2022-11-05T04:18:54.485Z,3.90
2022-11-05T04:19:44.641Z,3.78
2022-11-05T04:20:55.320Z,3.53
2022-11-05T04:21:45.917Z,3.50
2022-11-05T04:22:36.211Z,3.42
2022-11-05T04:23:26.512Z,4.00
2022-11-05T04:24:10.369Z,3.72
2022-11-05T04:24:42.293Z,3.55
2022-11-05T04:25:17.063Z,3.70
2022-11-05T04:25:48.962Z,3.72
2022-11-05T04:26:23.319Z,3.70
2022-11-05T04:26:55.245Z,3.72
2022-11-05T04:27:26.987Z,3.70
2022-11-05T04:28:00.603Z,3.80
2022-11-05T04:28:52.364Z,3.15
2022-11-05T04:29:42.661Z,3.75
2022-11-05T04:30:18.779Z,3.63
2022-11-05T04:30:50.597Z,3.75
2022-11-05T04:31:22.297Z,3.90
2022-11-05T04:31:54.334Z,4.07
2022-11-05T04:32:26.149Z,3.65
2022-11-05T04:32:59.704Z,3.35
2022-11-05T04:33:31.787Z,4.05
2022-11-05T04:34:03.645Z,3.78
2022-11-05T04:34:35.483Z,3.67
2022-11-05T04:35:07.320Z,3.50
2022-11-05T04:35:47.312Z,3.50
2022-11-05T04:36:19.602Z,2.85
2022-11-05T04:36:52.433Z,3.30
2022-11-05T04:37:24.344Z,3.45
2022-11-05T04:37:56.263Z,3.03
2022-11-05T04:38:28.064Z,3.45
2022-11-05T04:38:59.921Z,4.00
2022-11-05T04:39:31.714Z,4.15
2022-11-05T04:40:03.689Z,3.63
2022-11-05T04:40:36.774Z,3.05
2022-11-05T04:41:16.907Z,3.40
2022-11-05T04:41:48.905Z,2.92
2022-11-05T04:42:20.822Z,3.60
2022-11-05T04:42:54.778Z,3.80
2022-11-05T04:43:26.521Z,3.67
2022-11-05T04:43:58.298Z,3.67
2022-11-05T04:44:30.219Z,3.45
2022-11-05T04:45:02.005Z,3.53
2022-11-05T04:45:36.217Z,3.17
2022-11-05T04:46:08.553Z,3.35
2022-11-05T04:46:40.357Z,3.58
2022-11-05T04:47:12.226Z,3.13
2022-11-05T04:47:44.156Z,3.13
2022-11-05T04:48:16.030Z,3.22
2022-11-05T04:48:47.845Z,3.40
2022-11-05T04:49:19.643Z,3.30
2022-11-05T04:49:51.470Z,3.38
2022-11-05T04:50:23.892Z,3.65
2022-11-05T04:50:55.685Z,3.13
2022-11-05T04:51:27.892Z,3.22
2022-11-05T04:51:59.647Z,3.58
2022-11-05T04:52:31.401Z,3.40
2022-11-05T04:53:03.372Z,3.63
2022-11-05T04:53:35.246Z,3.85
2022-11-05T04:54:07.442Z,3.45
2022-11-05T04:54:39.209Z,3.70
2022-11-05T04:55:10.958Z,3.58
2022-11-05T04:55:42.699Z,3.50
2022-11-05T04:56:25.811Z,3.65
2022-11-05T04:56:57.688Z,3.55
2022-11-05T04:57:29.440Z,3.67
2022-11-05T04:58:01.226Z,3.63
2022-11-05T04:58:33.060Z,3.45
2022-11-05T04:59:04.775Z,3.47
2022-11-05T04:59:36.623Z,3.60
2022-11-05T05:00:09.740Z,3.92
2022-11-05T05:00:41.601Z,4.03
2022-11-05T05:01:15.896Z,3.42
2022-11-05T05:01:52.757Z,3.50
2022-11-05T05:02:24.824Z,3.15
2022-11-05T05:02:56.666Z,3.20
2022-11-05T05:03:28.495Z,3.40
2022-11-05T05:04:00.345Z,3.40
2022-11-05T05:04:32.136Z,3.15
2022-11-05T05:05:04.554Z,3.33
2022-11-05T05:05:36.349Z,3.05
2022-11-05T05:06:08.907Z,3.53
2022-11-05T05:06:40.626Z,3.38
2022-11-05T05:07:12.455Z,3.70
2022-11-05T05:07:44.336Z,3.60
2022-11-05T05:08:16.152Z,3.05
2022-11-05T05:08:49.485Z,3.58
2022-11-05T05:09:21.243Z,3.60
2022-11-05T05:09:54.876Z,3.55
2022-11-05T05:10:26.618Z,3.42
2022-11-05T05:11:04.777Z,3.17
2022-11-05T05:11:36.525Z,2.90
2022-11-05T05:12:08.280Z,3.58
2022-11-05T05:12:40.226Z,3.05
2022-11-05T05:13:12.329Z,3.40
2022-11-05T05:13:44.346Z,3.60
2022-11-05T05:14:16.191Z,3.17
2022-11-05T05:14:49.167Z,3.58
2022-11-05T05:15:21.137Z,3.75
2022-11-05T05:15:52.985Z,2.80
2022-11-05T05:16:27.655Z,3.55
2022-11-05T05:16:59.626Z,3.50
2022-11-05T05:17:31.883Z,3.60
2022-11-05T05:18:04.210Z,3.53
2022-11-05T05:18:38.150Z,3.05
2022-11-05T05:19:18.471Z,2.90
2022-11-05T05:20:12.050Z,3.70
2022-11-05T05:21:02.902Z,3.28
2022-11-05T05:21:43.555Z,3.28
2022-11-05T05:22:54.800Z,3.40
2022-11-05T05:23:30.113Z,3.53
2022-11-05T05:24:02.555Z,3.17
2022-11-05T05:24:36.740Z,3.38
2022-11-05T05:25:09.104Z,3.33
2022-11-05T05:25:53.868Z,3.13
2022-11-05T05:26:31.016Z,3.58
2022-11-05T05:27:03.250Z,3.53
2022-11-05T05:27:37.888Z,2.90
2022-11-05T05:28:12.131Z,3.30
2022-11-05T05:28:44.520Z,3.38
2022-11-05T05:29:17.911Z,3.65
2022-11-05T05:29:53.171Z,3.55
2022-11-05T05:30:26.957Z,3.35
2022-11-05T05:31:00.914Z,3.45
2022-11-05T05:31:34.079Z,3.42
2022-11-05T05:32:07.326Z,3.00
2022-11-05T05:32:39.661Z,3.20
2022-11-05T05:33:12.037Z,3.13
2022-11-05T05:33:44.617Z,3.55
2022-11-05T05:34:19.493Z,3.30
2022-11-05T05:34:54.673Z,3.47
2022-11-05T05:35:29.493Z,3.70
2022-11-05T05:36:11.455Z,3.97
2022-11-05T05:36:43.968Z,3.33
2022-11-05T05:37:16.705Z,3.47
2022-11-05T05:37:55.903Z,3.50
2022-11-05T05:38:29.479Z,3.33
2022-11-05T05:39:11.049Z,3.72
2022-11-05T05:39:45.130Z,3.20
2022-11-05T05:40:17.400Z,3.50
2022-11-05T05:40:50.572Z,3.38
2022-11-05T05:41:22.821Z,3.35
2022-11-05T05:41:57.342Z,3.45
2022-11-05T05:42:29.550Z,3.15
2022-11-05T05:43:01.750Z,3.72
2022-11-05T05:43:34.554Z,3.88
2022-11-05T05:44:06.978Z,3.47
2022-11-05T05:44:45.164Z,3.67
2022-11-05T05:45:17.439Z,3.60
2022-11-05T05:45:49.633Z,3.95
2022-11-05T05:46:22.101Z,3.58
2022-11-05T05:46:56.683Z,3.42
2022-11-05T05:47:28.964Z,3.92
2022-11-05T05:48:03.715Z,3.60
2022-11-05T05:48:42.346Z,3.95
2022-11-05T05:49:14.937Z,3.75
2022-11-05T05:49:47.268Z,3.40
2022-11-05T05:50:21.946Z,3.40
2022-11-05T05:51:02.009Z,3.90
2022-11-05T05:51:34.313Z,3.88
2022-11-05T05:52:06.590Z,3.70
2022-11-05T05:52:38.810Z,3.95
2022-11-05T05:53:11.165Z,3.53
2022-11-05T05:53:43.409Z,3.72
2022-11-05T05:54:15.818Z,4.25
2022-11-05T05:54:47.975Z,3.58
2022-11-05T05:55:23.355Z,3.50
2022-11-05T05:55:56.525Z,3.20
2022-11-05T05:56:28.633Z,3.80
2022-11-05T05:57:02.943Z,3.80
2022-11-05T05:57:37.263Z,3.35
2022-11-05T05:58:09.516Z,4.00
2022-11-05T05:58:44.636Z,3.35
2022-11-05T05:59:16.885Z,3.28
2022-11-05T05:59:48.894Z,3.92
2022-11-05T06:00:25.445Z,3.28
2022-11-05T06:01:05.273Z,3.13
2022-11-05T06:01:47.098Z,3.50
2022-11-05T06:02:19.632Z,3.88
2022-11-05T06:02:52.149Z,3.55
2022-11-05T06:03:24.704Z,3.60
2022-11-05T06:03:59.546Z,3.65
2022-11-05T06:04:32.028Z,3.65
2022-11-05T06:05:05.437Z,3.67
2022-11-05T06:05:40.177Z,3.47
2022-11-05T06:06:13.714Z,3.97
2022-11-05T06:06:47.100Z,3.35
2022-11-05T06:07:19.099Z,3.40
2022-11-05T06:07:58.097Z,3.85
2022-11-05T06:08:30.688Z,3.38
2022-11-05T06:09:02.831Z,4.20
2022-11-05T06:09:35.013Z,3.20
2022-11-05T06:10:07.461Z,3.60
2022-11-05T06:10:39.549Z,4.03
2022-11-05T06:11:11.922Z,3.63
2022-11-05T06:11:44.070Z,3.42
2022-11-05T06:12:15.938Z,3.55
2022-11-05T06:12:47.904Z,3.50
2022-11-05T06:13:20.195Z,3.83
2022-11-05T06:13:52.472Z,3.65
2022-11-05T06:14:34.154Z,3.28
2022-11-05T06:15:15.427Z,3.97
2022-11-05T06:16:15.863Z,3.30
2022-11-05T06:16:47.875Z,3.20
2022-11-05T06:17:19.978Z,4.28
2022-11-05T06:17:52.095Z,3.83
2022-11-05T06:18:24.123Z,3.63
2022-11-05T06:18:56.445Z,3.08
2022-11-05T06:19:29.309Z,3.55
2022-11-05T06:20:01.569Z,3.15
2022-11-05T06:20:33.672Z,3.40
2022-11-05T06:21:08.039Z,3.22
2022-11-05T06:21:40.046Z,3.20
2022-11-05T06:22:12.133Z,3.03
2022-11-05T06:22:44.586Z,3.13
2022-11-05T06:23:16.745Z,3.30
2022-11-05T06:23:49.828Z,3.17
2022-11-05T06:24:21.909Z,3.50
2022-11-05T06:24:54.029Z,3.13
2022-11-05T06:25:26.885Z,3.28
2022-11-05T06:27:59.915Z,3.58
2022-11-05T06:28:33.546Z,3.00
2022-11-05T06:29:05.725Z,3.85
2022-11-05T06:29:37.503Z,2.88
2022-11-05T06:30:09.937Z,3.13
2022-11-05T06:30:41.821Z,3.13
2022-11-05T06:31:15.070Z,3.20
2022-11-05T06:31:47.077Z,3.67
2022-11-05T06:32:18.934Z,2.85
2022-11-05T06:32:50.803Z,3.42
2022-11-05T06:33:22.781Z,3.17
2022-11-05T06:33:54.627Z,2.97
2022-11-05T06:34:26.478Z,3.40
2022-11-05T06:34:58.425Z,3.38
2022-11-05T06:35:30.877Z,3.40
2022-11-05T06:36:03.667Z,3.58
2022-11-05T06:36:35.410Z,3.45
2022-11-05T06:37:07.346Z,3.40
2022-11-05T06:37:39.610Z,3.65
2022-11-05T06:38:11.335Z,3.50
2022-11-05T06:38:43.205Z,3.17
2022-11-05T06:39:15.073Z,3.90
2022-11-05T06:39:46.956Z,3.72
2022-11-05T06:40:18.820Z,3.42
2022-11-05T06:40:50.645Z,3.40
2022-11-05T06:41:22.513Z,3.88
2022-11-05T06:42:17.127Z,3.10
2022-11-05T06:42:46.409Z,3.60
2022-11-05T06:43:18.344Z,3.08
2022-11-05T06:43:50.241Z,3.70
2022-11-05T06:44:22.544Z,3.70
2022-11-05T06:44:54.301Z,3.30
2022-11-05T06:45:26.417Z,3.80
2022-11-05T06:46:01.297Z,3.63
2022-11-05T06:46:33.150Z,3.47
2022-11-05T06:47:05.064Z,3.95
2022-11-05T06:47:36.826Z,3.42
2022-11-05T06:48:08.650Z,3.45
2022-11-05T06:48:40.658Z,3.33
2022-11-05T06:49:12.416Z,3.58
2022-11-05T06:49:44.364Z,4.00
2022-11-05T06:50:16.233Z,4.07
2022-11-05T06:50:48.229Z,4.18
2022-11-05T06:51:20.076Z,3.70
2022-11-05T06:51:52.232Z,3.45
2022-11-05T06:52:24.036Z,3.38
2022-11-05T06:53:00.676Z,3.65
2022-11-05T06:53:32.825Z,3.30
2022-11-05T06:54:04.603Z,3.08
2022-11-05T06:54:36.506Z,3.33
2022-11-05T06:55:08.736Z,3.22
2022-11-05T06:55:41.098Z,3.30
2022-11-05T06:56:13.009Z,3.78
2022-11-05T06:56:44.886Z,3.25
2022-11-05T06:57:16.868Z,3.70
2022-11-05T06:57:48.613Z,2.85
2022-11-05T06:58:20.866Z,3.30
2022-11-05T06:58:52.615Z,3.40
2022-11-05T06:59:24.473Z,3.08
2022-11-05T07:00:01.343Z,3.33
2022-11-05T07:00:35.327Z,3.15
2022-11-05T07:01:10.117Z,3.67
2022-11-05T07:01:42.062Z,3.13
2022-11-05T07:02:14.270Z,3.63
2022-11-05T07:02:46.828Z,3.00
2022-11-05T07:03:18.853Z,3.15
2022-11-05T07:03:50.738Z,3.40
2022-11-05T07:04:22.696Z,3.28
2022-11-05T07:04:54.470Z,3.70
2022-11-05T07:05:26.406Z,3.20
2022-11-05T07:06:00.646Z,3.80
2022-11-05T07:06:36.845Z,3.75
2022-11-05T07:07:09.043Z,2.97
2022-11-05T07:07:42.124Z,3.40
2022-11-05T07:08:14.169Z,3.78
2022-11-05T07:08:46.151Z,3.40
2022-11-05T07:09:17.915Z,3.60
2022-11-05T07:09:52.374Z,3.20
2022-11-05T07:10:24.197Z,3.10
2022-11-05T07:10:56.084Z,3.67
2022-11-05T07:11:27.918Z,3.63
2022-11-05T07:11:59.766Z,4.13
2022-11-05T07:12:31.533Z,3.65
2022-11-05T07:13:07.778Z,3.20
2022-11-05T07:13:40.357Z,3.50
2022-11-05T07:14:12.235Z,3.83
2022-11-05T07:14:44.080Z,3.97
2022-11-05T07:15:16.143Z,3.58
2022-11-05T07:15:47.872Z,3.28
2022-11-05T07:16:19.691Z,3.50
2022-11-05T07:16:51.479Z,3.60
2022-11-05T07:17:23.618Z,3.40
2022-11-05T07:17:58.836Z,3.33
2022-11-05T07:18:30.808Z,3.97
2022-11-05T07:19:02.780Z,3.90
2022-11-05T07:19:34.902Z,3.45
2022-11-05T07:20:08.052Z,3.75
2022-11-05T07:20:39.961Z,3.80
2022-11-05T07:21:11.781Z,3.55
2022-11-05T07:21:43.567Z,4.05
2022-11-05T07:22:15.942Z,3.42
2022-11-05T07:22:47.686Z,3.80
2022-11-05T07:23:19.715Z,3.67
2022-11-05T07:23:51.573Z,3.65
2022-11-05T07:24:23.371Z,3.58
2022-11-05T07:24:55.194Z,4.05
2022-11-05T07:25:27.009Z,3.70
2022-11-05T07:25:59.523Z,3.47
2022-11-05T07:26:34.508Z,3.50
2022-11-05T07:27:06.602Z,4.05
2022-11-05T07:27:40.127Z,4.00
2022-11-05T07:28:12.173Z,3.70
2022-11-05T07:28:43.979Z,3.67
2022-11-05T07:29:15.848Z,3.70
2022-11-05T07:29:47.631Z,3.72
2022-11-05T07:30:19.543Z,3.95
2022-11-05T07:30:51.481Z,3.50
2022-11-05T07:31:23.491Z,3.58
2022-11-05T07:31:55.267Z,3.80
2022-11-05T07:32:27.036Z,4.05
2022-11-05T07:32:58.930Z,4.28
2022-11-05T07:33:36.127Z,3.70
2022-11-05T07:34:08.411Z,4.32
2022-11-05T07:34:40.172Z,3.85
2022-11-05T07:35:12.013Z,4.22
2022-11-05T07:35:43.856Z,3.78
2022-11-05T07:36:15.616Z,3.70
2022-11-05T07:36:49.776Z,3.80
2022-11-05T07:37:21.509Z,3.63
2022-11-05T07:37:54.690Z,3.67
2022-11-05T07:38:26.664Z,3.75
2022-11-05T07:39:00.496Z,4.45
2022-11-05T07:39:32.613Z,3.30
2022-11-05T07:40:05.388Z,3.60
2022-11-05T07:40:37.245Z,3.90
2022-11-05T07:41:08.983Z,3.88
2022-11-05T07:41:40.821Z,4.28
2022-11-05T07:42:13.759Z,4.07
2022-11-05T07:42:48.262Z,4.20
2022-11-05T07:43:20.121Z,4.47
2022-11-05T07:43:52.031Z,4.20
2022-11-05T07:44:24.090Z,3.75
2022-11-05T07:44:55.897Z,3.88
2022-11-05T07:45:30.353Z,3.45
2022-11-05T07:46:02.116Z,4.03
2022-11-05T07:46:33.796Z,4.32
2022-11-05T07:47:05.635Z,4.07
2022-11-05T07:47:47.956Z,4.38
2022-11-05T07:48:19.680Z,4.05
2022-11-05T07:48:51.504Z,3.97
2022-11-05T07:49:23.945Z,3.92
2022-11-05T07:49:55.734Z,4.13
2022-11-05T07:50:30.701Z,4.35
2022-11-05T07:51:02.532Z,4.40
2022-11-05T07:51:34.554Z,3.75
2022-11-05T07:52:06.272Z,3.72
2022-11-05T07:52:38.124Z,3.78
2022-11-05T07:53:12.832Z,3.60
2022-11-05T07:53:45.623Z,4.63
2022-11-05T07:54:17.550Z,3.75
2022-11-05T07:54:49.556Z,3.72
2022-11-05T07:55:21.296Z,3.60
2022-11-05T07:55:53.144Z,4.50
2022-11-05T07:56:24.887Z,3.92
2022-11-05T07:56:56.787Z,4.05
2022-11-05T07:57:28.679Z,3.88
2022-11-05T07:58:00.562Z,4.05
2022-11-05T07:58:33.390Z,4.05
2022-11-05T07:59:05.626Z,3.88
2022-11-05T07:59:37.803Z,4.10
2022-11-05T08:00:13.128Z,4.10
2022-11-05T08:00:45.249Z,4.38
2022-11-05T08:01:17.824Z,4.22
2022-11-05T08:01:50.210Z,3.67
2022-11-05T08:02:22.746Z,3.75
2022-11-05T08:03:10.796Z,4.15
2022-11-05T08:03:43.173Z,3.80
2022-11-05T08:04:15.118Z,3.72
2022-11-05T08:04:46.981Z,3.78
2022-11-05T08:05:18.760Z,4.03
2022-11-05T08:05:50.835Z,4.05
2022-11-05T08:06:22.690Z,3.38
2022-11-05T08:06:54.446Z,3.75
2022-11-05T08:07:26.254Z,4.00
2022-11-05T08:07:58.329Z,3.97
2022-11-05T08:08:30.143Z,4.03
2022-11-05T08:09:02.314Z,4.00
2022-11-05T08:09:34.372Z,3.88
2022-11-05T08:10:06.703Z,3.88
2022-11-05T08:10:38.725Z,3.83
2022-11-05T08:11:12.399Z,4.82
2022-11-05T08:11:44.189Z,4.07
2022-11-05T08:12:16.013Z,3.60
2022-11-05T08:12:47.975Z,4.10
2022-11-05T08:13:19.833Z,4.32
2022-11-05T08:13:51.705Z,4.28
2022-11-05T08:14:23.520Z,4.50